Terminal Aerodrome Forecast
Issued by NWS Sioux Falls, SD

Home | Current Version | Previous Version | Text Only | Print | Product List | Glossary Off
Versions: 1 2 3 4 5 6 7 8 9 10 11 12 13 14 15 16 17

000
FTUS43 KFSD 171120
TAFSUX
TAF
KSUX 171120Z 1712/1812 VRB03KT P6SM FEW150 SCT250
     FM171500 10009KT P6SM SCT150 SCT200
     FM180100 09010KT P6SM BKN080
     FM180400 07009KT P6SM BKN045
     FM180600 07009KT P6SM -RA OVC025
     FM180800 05008KT 4SM RASN BR OVC010
     FM181000 01007KT 2SM -SN BR OVC010=

USA.gov is the U.S. government's official web portal to all federal, state and local government web resources and services.